sensor_id;sensor_type;location;lat;lon;timestamp;temperature;humidity
10296;DHT22;5193;51.032;6.356;2023-12-28T00:01:13;9.50;99.90
10296;DHT22;5193;51.032;6.356;2023-12-28T00:03:49;9.50;99.90
10296;DHT22;5193;51.032;6.356;2023-12-28T00:06:15;9.40;99.90
10296;DHT22;5193;51.032;6.356;2023-12-28T00:08:41;9.40;99.90
10296;DHT22;5193;51.032;6.356;2023-12-28T00:11:08;9.40;99.90
10296;DHT22;5193;51.032;6.356;2023-12-28T00:13:37;9.30;99.90
10296;DHT22;5193;51.032;6.356;2023-12-28T00:16:07;9.30;99.90
10296;DHT22;5193;51.032;6.356;2023-12-28T00:18:33;9.30;99.90
10296;DHT22;5193;51.032;6.356;2023-12-28T00:20:59;9.20;99.90
10296;DHT22;5193;51.032;6.356;2023-12-28T00:23:27;9.20;99.90
10296;DHT22;5193;51.032;6.356;2023-12-28T00:25:54;9.20;99.90
10296;DHT22;5193;51.032;6.356;2023-12-28T00:28:23;9.20;99.90
10296;DHT22;5193;51.032;6.356;2023-12-28T00:30:54;9.20;99.90
10296;DHT22;5193;51.032;6.356;2023-12-28T00:36:45;9.20;99.90
10296;DHT22;5193;51.032;6.356;2023-12-28T00:39:12;9.20;99.90
10296;DHT22;5193;51.032;6.356;2023-12-28T00:45:09;9.20;99.90
10296;DHT22;5193;51.032;6.356;2023-12-28T00:47:37;9.20;99.90
10296;DHT22;5193;51.032;6.356;2023-12-28T00:50:04;9.20;99.90
10296;DHT22;5193;51.032;6.356;2023-12-28T00:53:03;9.20;99.90
10296;DHT22;5193;51.032;6.356;2023-12-28T00:58:53;9.20;99.90
10296;DHT22;5193;51.032;6.356;2023-12-28T01:01:19;9.20;99.90
10296;DHT22;5193;51.032;6.356;2023-12-28T01:03:45;9.30;99.90
10296;DHT22;5193;51.032;6.356;2023-12-28T01:06:14;9.30;99.90
10296;DHT22;5193;51.032;6.356;2023-12-28T01:08:41;9.30;99.90
10296;DHT22;5193;51.032;6.356;2023-12-28T01:11:07;9.30;99.90
10296;DHT22;5193;51.032;6.356;2023-12-28T01:13:34;9.40;99.90
10296;DHT22;5193;51.032;6.356;2023-12-28T01:16:01;9.40;99.90
10296;DHT22;5193;51.032;6.356;2023-12-28T01:21:48;9.40;99.90
10296;DHT22;5193;51.032;6.356;2023-12-28T01:24:16;9.40;99.90
10296;DHT22;5193;51.032;6.356;2023-12-28T01:26:43;9.40;99.90
10296;DHT22;5193;51.032;6.356;2023-12-28T01:29:08;9.40;99.90
10296;DHT22;5193;51.032;6.356;2023-12-28T01:35:11;9.40;99.90
10296;DHT22;5193;51.032;6.356;2023-12-28T01:37:37;9.40;99.90
10296;DHT22;5193;51.032;6.356;2023-12-28T01:40:04;9.40;99.90
10296;DHT22;5193;51.032;6.356;2023-12-28T01:43:04;9.40;99.90
10296;DHT22;5193;51.032;6.356;2023-12-28T01:45:29;9.40;99.90
10296;DHT22;5193;51.032;6.356;2023-12-28T01:48:05;9.40;99.90
10296;DHT22;5193;51.032;6.356;2023-12-28T01:50:34;9.40;99.90
10296;DHT22;5193;51.032;6.356;2023-12-28T01:53:02;9.40;99.90
10296;DHT22;5193;51.032;6.356;2023-12-28T01:55:30;9.40;99.90
10296;DHT22;5193;51.032;6.356;2023-12-28T01:57:58;9.40;99.90
10296;DHT22;5193;51.032;6.356;2023-12-28T02:00:27;9.40;99.90
10296;DHT22;5193;51.032;6.356;2023-12-28T02:03:16;9.40;99.90
10296;DHT22;5193;51.032;6.356;2023-12-28T02:05:44;9.50;99.90
10296;DHT22;5193;51.032;6.356;2023-12-28T02:08:10;9.40;99.90
10296;DHT22;5193;51.032;6.356;2023-12-28T02:10:39;9.40;99.90
10296;DHT22;5193;51.032;6.356;2023-12-28T02:13:09;9.40;99.90
10296;DHT22;5193;51.032;6.356;2023-12-28T02:15:47;9.40;99.90
10296;DHT22;5193;51.032;6.356;2023-12-28T02:18:21;9.40;99.90
10296;DHT22;5193;51.032;6.356;2023-12-28T02:20:49;9.40;99.90
10296;DHT22;5193;51.032;6.356;2023-12-28T02:23:17;9.40;99.90
10296;DHT22;5193;51.032;6.356;2023-12-28T02:25:42;9.40;99.90
10296;DHT22;5193;51.032;6.356;2023-12-28T02:28:08;9.40;99.90
10296;DHT22;5193;51.032;6.356;2023-12-28T02:30:34;9.30;99.90
10296;DHT22;5193;51.032;6.356;2023-12-28T02:33:25;9.30;99.90
10296;DHT22;5193;51.032;6.356;2023-12-28T02:36:06;9.30;99.90
10296;DHT22;5193;51.032;6.356;2023-12-28T02:38:38;9.30;99.90
10296;DHT22;5193;51.032;6.356;2023-12-28T02:41:37;9.30;99.90
10296;DHT22;5193;51.032;6.356;2023-12-28T02:44:06;9.30;99.90
10296;DHT22;5193;51.032;6.356;2023-12-28T02:46:32;9.30;99.90
10296;DHT22;5193;51.032;6.356;2023-12-28T02:48:57;9.30;99.90
10296;DHT22;5193;51.032;6.356;2023-12-28T02:51:27;9.30;99.90
10296;DHT22;5193;51.032;6.356;2023-12-28T02:54:18;9.20;99.90
10296;DHT22;5193;51.032;6.356;2023-12-28T02:56:47;9.20;99.90
10296;DHT22;5193;51.032;6.356;2023-12-28T02:59:16;9.20;99.90
10296;DHT22;5193;51.032;6.356;2023-12-28T03:01:45;9.20;99.90
10296;DHT22;5193;51.032;6.356;2023-12-28T03:04:12;9.20;99.90
10296;DHT22;5193;51.032;6.356;2023-12-28T03:10:02;9.20;99.90
10296;DHT22;5193;51.032;6.356;2023-12-28T03:12:29;9.20;99.90
10296;DHT22;5193;51.032;6.356;2023-12-28T03:14:59;9.20;99.90
10296;DHT22;5193;51.032;6.356;2023-12-28T03:17:25;9.20;99.90
10296;DHT22;5193;51.032;6.356;2023-12-28T03:19:51;9.20;99.90
10296;DHT22;5193;51.032;6.356;2023-12-28T03:22:19;9.10;99.90
10296;DHT22;5193;51.032;6.356;2023-12-28T03:24:46;9.20;99.90
10296;DHT22;5193;51.032;6.356;2023-12-28T03:30:40;9.20;99.90
10296;DHT22;5193;51.032;6.356;2023-12-28T03:33:07;9.20;99.90
10296;DHT22;5193;51.032;6.356;2023-12-28T03:35:34;9.20;99.90
10296;DHT22;5193;51.032;6.356;2023-12-28T03:38:01;9.20;99.90
10296;DHT22;5193;51.032;6.356;2023-12-28T03:40:27;9.20;99.90
10296;DHT22;5193;51.032;6.356;2023-12-28T03:42:55;9.20;99.90
10296;DHT22;5193;51.032;6.356;2023-12-28T03:45:21;9.20;99.90
10296;DHT22;5193;51.032;6.356;2023-12-28T03:47:49;9.20;99.90
10296;DHT22;5193;51.032;6.356;2023-12-28T03:50:17;9.20;99.90
10296;DHT22;5193;51.032;6.356;2023-12-28T03:52:43;9.20;99.90
10296;DHT22;5193;51.032;6.356;2023-12-28T03:55:15;9.10;99.90
10296;DHT22;5193;51.032;6.356;2023-12-28T03:57:43;9.20;99.90
10296;DHT22;5193;51.032;6.356;2023-12-28T04:00:15;9.20;99.90
10296;DHT22;5193;51.032;6.356;2023-12-28T04:06:04;9.20;99.90
10296;DHT22;5193;51.032;6.356;2023-12-28T04:08:29;9.20;99.90
10296;DHT22;5193;51.032;6.356;2023-12-28T04:10:55;9.20;99.90
10296;DHT22;5193;51.032;6.356;2023-12-28T04:13:21;9.20;99.90
10296;DHT22;5193;51.032;6.356;2023-12-28T04:15:59;9.20;99.90
10296;DHT22;5193;51.032;6.356;2023-12-28T04:18:24;9.30;99.90
10296;DHT22;5193;51.032;6.356;2023-12-28T04:20:51;9.20;99.90
10296;DHT22;5193;51.032;6.356;2023-12-28T04:23:17;9.20;99.90
10296;DHT22;5193;51.032;6.356;2023-12-28T04:25:43;9.20;99.90
10296;DHT22;5193;51.032;6.356;2023-12-28T04:28:19;9.20;99.90
10296;DHT22;5193;51.032;6.356;2023-12-28T04:30:50;9.20;99.90
10296;DHT22;5193;51.032;6.356;2023-12-28T04:33:18;9.20;99.90
10296;DHT22;5193;51.032;6.356;2023-12-28T04:35:45;9.20;99.90
10296;DHT22;5193;51.032;6.356;2023-12-28T04:38:23;9.20;99.90
10296;DHT22;5193;51.032;6.356;2023-12-28T04:40:55;9.20;99.90
10296;DHT22;5193;51.032;6.356;2023-12-28T04:43:21;9.20;99.90
10296;DHT22;5193;51.032;6.356;2023-12-28T04:45:50;9.20;99.90
10296;DHT22;5193;51.032;6.356;2023-12-28T04:48:19;9.20;99.90
10296;DHT22;5193;51.032;6.356;2023-12-28T04:50:48;9.10;99.90
10296;DHT22;5193;51.032;6.356;2023-12-28T04:53:23;9.10;99.90
10296;DHT22;5193;51.032;6.356;2023-12-28T04:55:48;9.10;99.90
10296;DHT22;5193;51.032;6.356;2023-12-28T04:58:17;9.10;99.90
10296;DHT22;5193;51.032;6.356;2023-12-28T05:00:43;9.10;99.90
10296;DHT22;5193;51.032;6.356;2023-12-28T05:03:10;9.10;99.90
10296;DHT22;5193;51.032;6.356;2023-12-28T05:05:35;9.10;99.90
10296;DHT22;5193;51.032;6.356;2023-12-28T05:08:01;9.20;99.90
10296;DHT22;5193;51.032;6.356;2023-12-28T05:10:32;9.20;99.90
10296;DHT22;5193;51.032;6.356;2023-12-28T05:12:58;9.20;99.90
10296;DHT22;5193;51.032;6.356;2023-12-28T05:15:25;9.20;99.90
10296;DHT22;5193;51.032;6.356;2023-12-28T05:17:50;9.20;99.90
10296;DHT22;5193;51.032;6.356;2023-12-28T05:20:26;9.30;99.90
10296;DHT22;5193;51.032;6.356;2023-12-28T05:22:51;9.30;99.90
10296;DHT22;5193;51.032;6.356;2023-12-28T05:25:17;9.30;99.90
10296;DHT22;5193;51.032;6.356;2023-12-28T05:27:45;9.40;99.90
10296;DHT22;5193;51.032;6.356;2023-12-28T05:30:11;9.40;99.90
10296;DHT22;5193;51.032;6.356;2023-12-28T05:32:37;9.40;99.90
10296;DHT22;5193;51.032;6.356;2023-12-28T05:35:07;9.40;99.90
10296;DHT22;5193;51.032;6.356;2023-12-28T05:44:09;9.40;99.90
10296;DHT22;5193;51.032;6.356;2023-12-28T05:46:36;9.40;99.90
10296;DHT22;5193;51.032;6.356;2023-12-28T05:49:02;9.40;99.90
10296;DHT22;5193;51.032;6.356;2023-12-28T05:51:40;9.40;99.90
10296;DHT22;5193;51.032;6.356;2023-12-28T05:54:10;9.40;99.90
10296;DHT22;5193;51.032;6.356;2023-12-28T05:56:36;9.50;99.90
10296;DHT22;5193;51.032;6.356;2023-12-28T05:59:02;9.50;99.90
10296;DHT22;5193;51.032;6.356;2023-12-28T06:01:27;9.50;99.90
10296;DHT22;5193;51.032;6.356;2023-12-28T06:03:53;9.50;99.90
10296;DHT22;5193;51.032;6.356;2023-12-28T06:06:22;9.50;99.90
10296;DHT22;5193;51.032;6.356;2023-12-28T06:08:49;9.50;99.90
10296;DHT22;5193;51.032;6.356;2023-12-28T06:11:14;9.50;99.90
10296;DHT22;5193;51.032;6.356;2023-12-28T06:13:41;9.50;99.90
10296;DHT22;5193;51.032;6.356;2023-12-28T06:16:09;9.50;99.90
10296;DHT22;5193;51.032;6.356;2023-12-28T06:18:42;9.50;99.90
10296;DHT22;5193;51.032;6.356;2023-12-28T06:21:09;9.50;99.90
10296;DHT22;5193;51.032;6.356;2023-12-28T06:23:35;9.50;99.90
10296;DHT22;5193;51.032;6.356;2023-12-28T06:26:06;9.50;99.90
10296;DHT22;5193;51.032;6.356;2023-12-28T06:28:36;9.60;99.90
10296;DHT22;5193;51.032;6.356;2023-12-28T06:31:18;9.50;99.90
10296;DHT22;5193;51.032;6.356;2023-12-28T06:33:44;9.50;99.90
10296;DHT22;5193;51.032;6.356;2023-12-28T06:36:11;9.50;99.90
10296;DHT22;5193;51.032;6.356;2023-12-28T06:38:38;9.40;99.90
10296;DHT22;5193;51.032;6.356;2023-12-28T06:41:12;9.30;99.90
10296;DHT22;5193;51.032;6.356;2023-12-28T06:43:44;9.30;99.90
10296;DHT22;5193;51.032;6.356;2023-12-28T06:46:11;9.20;99.90
10296;DHT22;5193;51.032;6.356;2023-12-28T06:48:36;9.20;99.90
10296;DHT22;5193;51.032;6.356;2023-12-28T06:51:07;9.20;99.90
10296;DHT22;5193;51.032;6.356;2023-12-28T06:53:36;9.20;99.90
10296;DHT22;5193;51.032;6.356;2023-12-28T06:56:04;9.20;99.90
10296;DHT22;5193;51.032;6.356;2023-12-28T06:58:30;9.20;99.90
10296;DHT22;5193;51.032;6.356;2023-12-28T07:00:56;9.30;99.90
10296;DHT22;5193;51.032;6.356;2023-12-28T07:03:22;9.30;99.90
10296;DHT22;5193;51.032;6.356;2023-12-28T07:05:50;9.30;99.90
10296;DHT22;5193;51.032;6.356;2023-12-28T07:08:19;9.30;99.90
10296;DHT22;5193;51.032;6.356;2023-12-28T07:10:50;9.30;99.90
10296;DHT22;5193;51.032;6.356;2023-12-28T07:13:15;9.30;99.90
10296;DHT22;5193;51.032;6.356;2023-12-28T07:15:42;9.30;99.90
10296;DHT22;5193;51.032;6.356;2023-12-28T07:18:08;9.30;99.90
10296;DHT22;5193;51.032;6.356;2023-12-28T07:20:34;9.30;99.90
10296;DHT22;5193;51.032;6.356;2023-12-28T07:22:59;9.30;99.90
10296;DHT22;5193;51.032;6.356;2023-12-28T07:25:31;9.30;99.90
10296;DHT22;5193;51.032;6.356;2023-12-28T07:27:57;9.30;99.90
10296;DHT22;5193;51.032;6.356;2023-12-28T07:30:24;9.40;99.90
10296;DHT22;5193;51.032;6.356;2023-12-28T07:32:50;9.30;99.90
10296;DHT22;5193;51.032;6.356;2023-12-28T07:35:15;9.40;99.90
10296;DHT22;5193;51.032;6.356;2023-12-28T07:37:41;9.30;99.90
10296;DHT22;5193;51.032;6.356;2023-12-28T07:40:08;9.30;99.90
10296;DHT22;5193;51.032;6.356;2023-12-28T07:42:34;9.30;99.90
10296;DHT22;5193;51.032;6.356;2023-12-28T07:45:01;9.40;99.90
10296;DHT22;5193;51.032;6.356;2023-12-28T07:47:27;9.40;99.90
10296;DHT22;5193;51.032;6.356;2023-12-28T07:49:52;9.40;99.90
10296;DHT22;5193;51.032;6.356;2023-12-28T07:52:18;9.40;99.90
10296;DHT22;5193;51.032;6.356;2023-12-28T07:54:46;9.40;99.90
10296;DHT22;5193;51.032;6.356;2023-12-28T07:57:12;9.40;99.90
10296;DHT22;5193;51.032;6.356;2023-12-28T07:59:39;9.40;99.90
10296;DHT22;5193;51.032;6.356;2023-12-28T08:02:06;9.40;99.90
10296;DHT22;5193;51.032;6.356;2023-12-28T08:04:33;9.40;99.90
10296;DHT22;5193;51.032;6.356;2023-12-28T08:07:07;9.40;99.90
10296;DHT22;5193;51.032;6.356;2023-12-28T08:09:35;9.40;99.90
10296;DHT22;5193;51.032;6.356;2023-12-28T08:12:01;9.40;99.90
10296;DHT22;5193;51.032;6.356;2023-12-28T08:14:27;9.40;99.90
10296;DHT22;5193;51.032;6.356;2023-12-28T08:16:53;9.40;99.90
10296;DHT22;5193;51.032;6.356;2023-12-28T08:19:19;9.40;99.90
10296;DHT22;5193;51.032;6.356;2023-12-28T08:21:47;9.40;99.90
10296;DHT22;5193;51.032;6.356;2023-12-28T08:27:38;9.40;99.90
10296;DHT22;5193;51.032;6.356;2023-12-28T08:30:08;9.30;99.90
10296;DHT22;5193;51.032;6.356;2023-12-28T08:32:38;9.30;99.90
10296;DHT22;5193;51.032;6.356;2023-12-28T08:35:04;9.20;99.90
10296;DHT22;5193;51.032;6.356;2023-12-28T08:37:30;9.20;99.90
10296;DHT22;5193;51.032;6.356;2023-12-28T08:40:02;9.20;99.90
10296;DHT22;5193;51.032;6.356;2023-12-28T08:42:29;9.10;99.90
10296;DHT22;5193;51.032;6.356;2023-12-28T08:44:59;9.20;99.90
10296;DHT22;5193;51.032;6.356;2023-12-28T08:47:26;9.20;99.90
10296;DHT22;5193;51.032;6.356;2023-12-28T08:49:54;9.20;99.90
10296;DHT22;5193;51.032;6.356;2023-12-28T08:52:20;9.20;99.90
10296;DHT22;5193;51.032;6.356;2023-12-28T08:54:50;9.20;99.90
10296;DHT22;5193;51.032;6.356;2023-12-28T08:57:16;9.20;99.90
10296;DHT22;5193;51.032;6.356;2023-12-28T08:59:42;9.30;99.90
10296;DHT22;5193;51.032;6.356;2023-12-28T09:02:11;9.30;99.90
10296;DHT22;5193;51.032;6.356;2023-12-28T09:04:37;9.30;99.90
10296;DHT22;5193;51.032;6.356;2023-12-28T09:07:04;9.30;99.90
10296;DHT22;5193;51.032;6.356;2023-12-28T09:09:32;9.40;99.90
10296;DHT22;5193;51.032;6.356;2023-12-28T09:12:00;9.40;99.90
10296;DHT22;5193;51.032;6.356;2023-12-28T09:14:26;9.40;99.90
10296;DHT22;5193;51.032;6.356;2023-12-28T09:16:51;9.50;99.90
10296;DHT22;5193;51.032;6.356;2023-12-28T09:19:17;9.50;99.90
10296;DHT22;5193;51.032;6.356;2023-12-28T09:21:43;9.50;99.90
10296;DHT22;5193;51.032;6.356;2023-12-28T09:24:15;9.60;99.90
10296;DHT22;5193;51.032;6.356;2023-12-28T09:26:41;9.60;99.90
10296;DHT22;5193;51.032;6.356;2023-12-28T09:29:06;9.70;99.90
10296;DHT22;5193;51.032;6.356;2023-12-28T09:31:32;9.70;99.90
10296;DHT22;5193;51.032;6.356;2023-12-28T09:33:58;9.70;99.90
10296;DHT22;5193;51.032;6.356;2023-12-28T09:36:25;9.90;99.90
10296;DHT22;5193;51.032;6.356;2023-12-28T09:39:03;10.00;99.90
10296;DHT22;5193;51.032;6.356;2023-12-28T09:41:30;10.00;99.90
10296;DHT22;5193;51.032;6.356;2023-12-28T09:44:15;10.10;99.90
10296;DHT22;5193;51.032;6.356;2023-12-28T09:46:45;10.20;99.90
10296;DHT22;5193;51.032;6.356;2023-12-28T09:49:17;10.30;99.90
10296;DHT22;5193;51.032;6.356;2023-12-28T09:51:47;10.40;99.90
10296;DHT22;5193;51.032;6.356;2023-12-28T09:54:13;10.40;99.90
10296;DHT22;5193;51.032;6.356;2023-12-28T10:00:19;10.50;99.90
10296;DHT22;5193;51.032;6.356;2023-12-28T10:02:45;10.50;99.90
10296;DHT22;5193;51.032;6.356;2023-12-28T10:05:16;10.50;99.90
10296;DHT22;5193;51.032;6.356;2023-12-28T10:07:43;10.60;99.90
10296;DHT22;5193;51.032;6.356;2023-12-28T10:10:09;10.60;99.90
10296;DHT22;5193;51.032;6.356;2023-12-28T10:12:36;10.50;99.90
10296;DHT22;5193;51.032;6.356;2023-12-28T10:15:02;10.60;99.90
10296;DHT22;5193;51.032;6.356;2023-12-28T10:17:28;10.60;99.90
10296;DHT22;5193;51.032;6.356;2023-12-28T10:19:54;10.70;99.90
10296;DHT22;5193;51.032;6.356;2023-12-28T10:22:24;10.70;99.90
10296;DHT22;5193;51.032;6.356;2023-12-28T10:24:53;10.70;99.90
10296;DHT22;5193;51.032;6.356;2023-12-28T10:30:40;10.80;99.90
10296;DHT22;5193;51.032;6.356;2023-12-28T10:33:13;10.90;99.90
10296;DHT22;5193;51.032;6.356;2023-12-28T10:35:40;10.90;99.90
10296;DHT22;5193;51.032;6.356;2023-12-28T10:38:07;11.00;99.90
10296;DHT22;5193;51.032;6.356;2023-12-28T10:40:34;11.00;99.90
10296;DHT22;5193;51.032;6.356;2023-12-28T10:43:06;11.00;99.90
10296;DHT22;5193;51.032;6.356;2023-12-28T10:45:39;11.10;99.90
10296;DHT22;5193;51.032;6.356;2023-12-28T10:51:28;11.10;99.90
10296;DHT22;5193;51.032;6.356;2023-12-28T10:57:27;11.10;99.90
10296;DHT22;5193;51.032;6.356;2023-12-28T11:00:11;11.20;99.90
10296;DHT22;5193;51.032;6.356;2023-12-28T11:02:45;11.20;99.90
10296;DHT22;5193;51.032;6.356;2023-12-28T11:08:41;11.20;99.90
10296;DHT22;5193;51.032;6.356;2023-12-28T11:11:14;11.30;99.90
10296;DHT22;5193;51.032;6.356;2023-12-28T11:13:41;11.30;99.90
10296;DHT22;5193;51.032;6.356;2023-12-28T11:16:13;11.30;99.90
10296;DHT22;5193;51.032;6.356;2023-12-28T11:18:51;11.30;99.90
10296;DHT22;5193;51.032;6.356;2023-12-28T11:21:22;11.30;99.90
10296;DHT22;5193;51.032;6.356;2023-12-28T11:23:54;11.30;99.90
10296;DHT22;5193;51.032;6.356;2023-12-28T11:26:21;11.40;99.90
10296;DHT22;5193;51.032;6.356;2023-12-28T11:28:50;11.30;99.90
10296;DHT22;5193;51.032;6.356;2023-12-28T11:31:21;11.40;99.90
10296;DHT22;5193;51.032;6.356;2023-12-28T11:37:17;11.50;99.90
10296;DHT22;5193;51.032;6.356;2023-12-28T11:39:53;11.50;99.90
10296;DHT22;5193;51.032;6.356;2023-12-28T11:42:22;11.60;99.90
10296;DHT22;5193;51.032;6.356;2023-12-28T11:44:57;11.60;99.90
10296;DHT22;5193;51.032;6.356;2023-12-28T11:47:26;11.70;99.90
10296;DHT22;5193;51.032;6.356;2023-12-28T11:49:55;11.70;99.90
10296;DHT22;5193;51.032;6.356;2023-12-28T11:52:38;11.80;99.90
10296;DHT22;5193;51.032;6.356;2023-12-28T11:58:27;11.80;99.90
10296;DHT22;5193;51.032;6.356;2023-12-28T12:00:54;11.80;99.90
10296;DHT22;5193;51.032;6.356;2023-12-28T12:03:20;11.80;99.90
10296;DHT22;5193;51.032;6.356;2023-12-28T12:05:47;11.80;99.90
10296;DHT22;5193;51.032;6.356;2023-12-28T12:08:12;11.80;99.90
10296;DHT22;5193;51.032;6.356;2023-12-28T12:10:41;11.80;99.90
10296;DHT22;5193;51.032;6.356;2023-12-28T12:13:09;11.90;99.90
10296;DHT22;5193;51.032;6.356;2023-12-28T12:15:36;11.90;99.90
10296;DHT22;5193;51.032;6.356;2023-12-28T12:18:03;11.90;99.90
10296;DHT22;5193;51.032;6.356;2023-12-28T13:09:02;11.80;99.90
10296;DHT22;5193;51.032;6.356;2023-12-28T13:11:34;11.80;99.90
10296;DHT22;5193;51.032;6.356;2023-12-28T13:14:00;11.80;99.90
10296;DHT22;5193;51.032;6.356;2023-12-28T13:16:27;11.70;99.90
10296;DHT22;5193;51.032;6.356;2023-12-28T13:18:53;11.80;99.90
10296;DHT22;5193;51.032;6.356;2023-12-28T13:21:19;11.70;99.90
10296;DHT22;5193;51.032;6.356;2023-12-28T13:23:44;11.70;99.90
10296;DHT22;5193;51.032;6.356;2023-12-28T13:26:10;11.70;99.90
10296;DHT22;5193;51.032;6.356;2023-12-28T13:28:35;11.70;99.90
10296;DHT22;5193;51.032;6.356;2023-12-28T13:31:01;11.70;99.90
10296;DHT22;5193;51.032;6.356;2023-12-28T13:36:50;11.70;99.90
10296;DHT22;5193;51.032;6.356;2023-12-28T13:39:19;11.70;99.90
10296;DHT22;5193;51.032;6.356;2023-12-28T13:41:46;11.70;99.90
10296;DHT22;5193;51.032;6.356;2023-12-28T13:44:11;11.60;99.90
10296;DHT22;5193;51.032;6.356;2023-12-28T13:46:39;11.60;99.90
10296;DHT22;5193;51.032;6.356;2023-12-28T13:49:14;11.50;99.90
10296;DHT22;5193;51.032;6.356;2023-12-28T13:51:40;11.60;99.90
10296;DHT22;5193;51.032;6.356;2023-12-28T13:54:06;11.50;99.90
10296;DHT22;5193;51.032;6.356;2023-12-28T15:49:57;10.20;99.90
10296;DHT22;5193;51.032;6.356;2023-12-28T15:52:23;10.10;99.90
10296;DHT22;5193;51.032;6.356;2023-12-28T15:54:48;10.10;99.90
10296;DHT22;5193;51.032;6.356;2023-12-28T15:57:17;10.10;99.90
10296;DHT22;5193;51.032;6.356;2023-12-28T15:59:44;10.10;99.90
10296;DHT22;5193;51.032;6.356;2023-12-28T16:02:09;10.10;99.90
10296;DHT22;5193;51.032;6.356;2023-12-28T16:04:39;10.10;99.90
10296;DHT22;5193;51.032;6.356;2023-12-28T16:07:09;10.10;99.90
10296;DHT22;5193;51.032;6.356;2023-12-28T16:09:36;10.00;99.90
10296;DHT22;5193;51.032;6.356;2023-12-28T16:12:03;10.00;99.90
10296;DHT22;5193;51.032;6.356;2023-12-28T16:14:35;10.00;99.90
10296;DHT22;5193;51.032;6.356;2023-12-28T16:17:02;10.00;99.90
10296;DHT22;5193;51.032;6.356;2023-12-28T16:19:28;10.00;99.90
10296;DHT22;5193;51.032;6.356;2023-12-28T16:25:15;9.90;99.90
10296;DHT22;5193;51.032;6.356;2023-12-28T16:27:41;9.90;99.90
10296;DHT22;5193;51.032;6.356;2023-12-28T16:30:07;9.90;99.90
10296;DHT22;5193;51.032;6.356;2023-12-28T16:32:33;9.80;99.90
10296;DHT22;5193;51.032;6.356;2023-12-28T16:34:59;9.80;99.90
10296;DHT22;5193;51.032;6.356;2023-12-28T16:37:28;9.80;99.90
10296;DHT22;5193;51.032;6.356;2023-12-28T16:39:58;9.80;99.90
10296;DHT22;5193;51.032;6.356;2023-12-28T16:45:48;9.80;99.90
10296;DHT22;5193;51.032;6.356;2023-12-28T16:48:23;9.90;99.90
10296;DHT22;5193;51.032;6.356;2023-12-28T16:50:52;9.80;99.90
10296;DHT22;5193;51.032;6.356;2023-12-28T16:53:25;9.80;99.90
10296;DHT22;5193;51.032;6.356;2023-12-28T16:55:50;9.80;99.90
10296;DHT22;5193;51.032;6.356;2023-12-28T16:58:44;9.80;99.90
10296;DHT22;5193;51.032;6.356;2023-12-28T17:01:11;9.80;99.90
10296;DHT22;5193;51.032;6.356;2023-12-28T17:03:40;9.70;99.90
10296;DHT22;5193;51.032;6.356;2023-12-28T17:06:07;9.70;99.90
10296;DHT22;5193;51.032;6.356;2023-12-28T17:08:35;9.70;99.90
10296;DHT22;5193;51.032;6.356;2023-12-28T17:11:04;9.70;99.90
10296;DHT22;5193;51.032;6.356;2023-12-28T17:13:29;9.70;99.90
10296;DHT22;5193;51.032;6.356;2023-12-28T17:16:01;9.70;99.90
10296;DHT22;5193;51.032;6.356;2023-12-28T17:18:27;9.60;99.90
10296;DHT22;5193;51.032;6.356;2023-12-28T17:20:53;9.60;99.90
10296;DHT22;5193;51.032;6.356;2023-12-28T17:23:35;9.60;99.90
10296;DHT22;5193;51.032;6.356;2023-12-28T17:26:27;9.50;99.90
10296;DHT22;5193;51.032;6.356;2023-12-28T17:29:10;9.50;99.90
10296;DHT22;5193;51.032;6.356;2023-12-28T17:31:38;9.50;99.90
10296;DHT22;5193;51.032;6.356;2023-12-28T17:34:19;9.50;99.90
10296;DHT22;5193;51.032;6.356;2023-12-28T17:36:46;9.50;99.90
10296;DHT22;5193;51.032;6.356;2023-12-28T17:39:12;9.50;99.90
10296;DHT22;5193;51.032;6.356;2023-12-28T17:41:38;9.50;99.90
10296;DHT22;5193;51.032;6.356;2023-12-28T17:44:31;9.50;99.90
10296;DHT22;5193;51.032;6.356;2023-12-28T17:47:04;9.60;99.90
10296;DHT22;5193;51.032;6.356;2023-12-28T17:49:33;9.50;99.90
10296;DHT22;5193;51.032;6.356;2023-12-28T17:52:01;9.50;99.90
10296;DHT22;5193;51.032;6.356;2023-12-28T17:54:28;9.50;99.90
10296;DHT22;5193;51.032;6.356;2023-12-28T17:56:54;9.40;99.90
10296;DHT22;5193;51.032;6.356;2023-12-28T17:59:20;9.40;99.90
10296;DHT22;5193;51.032;6.356;2023-12-28T18:01:46;9.40;99.90
10296;DHT22;5193;51.032;6.356;2023-12-28T18:04:13;9.40;99.90
10296;DHT22;5193;51.032;6.356;2023-12-28T18:06:39;9.40;99.90
10296;DHT22;5193;51.032;6.356;2023-12-28T18:09:07;9.40;99.90
10296;DHT22;5193;51.032;6.356;2023-12-28T18:11:41;9.40;99.90
10296;DHT22;5193;51.032;6.356;2023-12-28T18:14:10;9.40;99.90
10296;DHT22;5193;51.032;6.356;2023-12-28T18:16:37;9.40;99.90
10296;DHT22;5193;51.032;6.356;2023-12-28T18:19:03;9.40;99.90
10296;DHT22;5193;51.032;6.356;2023-12-28T18:21:30;9.30;99.90
10296;DHT22;5193;51.032;6.356;2023-12-28T18:24:08;9.30;99.90
10296;DHT22;5193;51.032;6.356;2023-12-28T18:26:38;9.30;99.90
10296;DHT22;5193;51.032;6.356;2023-12-28T18:29:07;9.30;99.90
10296;DHT22;5193;51.032;6.356;2023-12-28T18:31:33;9.30;99.90
10296;DHT22;5193;51.032;6.356;2023-12-28T18:34:00;9.20;99.90
10296;DHT22;5193;51.032;6.356;2023-12-28T18:36:26;9.30;99.90
10296;DHT22;5193;51.032;6.356;2023-12-28T18:38:52;9.40;99.90
10296;DHT22;5193;51.032;6.356;2023-12-28T18:41:17;9.40;99.90
10296;DHT22;5193;51.032;6.356;2023-12-28T18:43:44;9.40;99.90
10296;DHT22;5193;51.032;6.356;2023-12-28T18:46:10;9.50;99.90
10296;DHT22;5193;51.032;6.356;2023-12-28T18:48:35;9.50;99.90
10296;DHT22;5193;51.032;6.356;2023-12-28T18:51:10;9.40;99.90
10296;DHT22;5193;51.032;6.356;2023-12-28T18:53:37;9.50;99.90
10296;DHT22;5193;51.032;6.356;2023-12-28T18:56:03;9.50;99.90
10296;DHT22;5193;51.032;6.356;2023-12-28T18:58:29;9.50;99.90
10296;DHT22;5193;51.032;6.356;2023-12-28T19:00:54;9.50;99.90
10296;DHT22;5193;51.032;6.356;2023-12-28T19:03:22;9.50;99.90
10296;DHT22;5193;51.032;6.356;2023-12-28T19:05:48;9.60;99.90
10296;DHT22;5193;51.032;6.356;2023-12-28T19:08:16;9.60;99.90
10296;DHT22;5193;51.032;6.356;2023-12-28T19:10:42;9.60;99.90
10296;DHT22;5193;51.032;6.356;2023-12-28T19:19:57;9.60;99.90
10296;DHT22;5193;51.032;6.356;2023-12-28T19:22:28;9.60;99.90
10296;DHT22;5193;51.032;6.356;2023-12-28T19:24:54;9.60;99.90
10296;DHT22;5193;51.032;6.356;2023-12-28T19:27:23;9.60;99.90
10296;DHT22;5193;51.032;6.356;2023-12-28T19:29:51;9.60;99.90
10296;DHT22;5193;51.032;6.356;2023-12-28T19:32:17;9.60;99.90
10296;DHT22;5193;51.032;6.356;2023-12-28T19:35:08;9.50;99.90
10296;DHT22;5193;51.032;6.356;2023-12-28T19:37:38;9.50;99.90
10296;DHT22;5193;51.032;6.356;2023-12-28T19:40:05;9.50;99.90
10296;DHT22;5193;51.032;6.356;2023-12-28T19:42:34;9.60;99.90
10296;DHT22;5193;51.032;6.356;2023-12-28T19:45:02;9.60;99.90
10296;DHT22;5193;51.032;6.356;2023-12-28T19:47:31;9.60;99.90
10296;DHT22;5193;51.032;6.356;2023-12-28T19:49:56;9.60;99.90
10296;DHT22;5193;51.032;6.356;2023-12-28T19:52:23;9.60;99.90
10296;DHT22;5193;51.032;6.356;2023-12-28T19:54:50;9.60;99.90
10296;DHT22;5193;51.032;6.356;2023-12-28T19:57:18;9.60;99.90
10296;DHT22;5193;51.032;6.356;2023-12-28T19:59:47;9.60;99.90
10296;DHT22;5193;51.032;6.356;2023-12-28T20:02:12;9.60;99.90
10296;DHT22;5193;51.032;6.356;2023-12-28T20:04:39;9.60;99.90
10296;DHT22;5193;51.032;6.356;2023-12-28T20:07:05;9.60;99.90